createdAt,value
2023-05-10T00:04:22.386Z,22.08
2023-05-10T00:09:23.858Z,22.05
2023-05-10T00:14:25.266Z,22.09
2023-05-10T00:19:26.667Z,22.06
2023-05-10T00:24:28.051Z,22.05
2023-05-10T00:29:29.427Z,22.05
2023-05-10T00:34:31.312Z,22.04
2023-05-10T00:39:32.714Z,22.06
2023-05-10T00:44:34.152Z,22.04
2023-05-10T00:49:36.155Z,22.07
2023-05-10T00:54:37.809Z,22.08
2023-05-10T00:59:39.365Z,22.08
2023-05-10T01:04:40.894Z,22.10
2023-05-10T01:09:42.344Z,22.04
2023-05-10T01:14:43.728Z,22.02
2023-05-10T01:19:45.161Z,22.05
2023-05-10T01:25:04.009Z,22.02
2023-05-10T01:30:24.280Z,22.03
2023-05-10T01:35:48.679Z,22.07
2023-05-10T01:40:52.961Z,22.01
2023-05-10T01:46:01.510Z,22.00
2023-05-10T01:51:02.888Z,22.08
2023-05-10T01:56:04.374Z,22.07
2023-05-10T02:01:05.839Z,21.97
2023-05-10T02:06:07.677Z,22.00
2023-05-10T02:11:09.081Z,22.02
2023-05-10T02:16:10.466Z,21.98
2023-05-10T02:21:11.961Z,21.98
2023-05-10T02:26:14.288Z,21.99
2023-05-10T02:31:15.663Z,21.97
2023-05-10T02:36:17.073Z,21.96
2023-05-10T02:41:18.481Z,21.98
2023-05-10T02:46:19.974Z,21.97
2023-05-10T02:51:21.422Z,21.95
2023-05-10T02:56:30.729Z,21.95
2023-05-10T03:01:32.173Z,21.96
2023-05-10T03:06:33.780Z,21.95
2023-05-10T03:11:57.759Z,21.93
2023-05-10T03:17:09.800Z,21.98
2023-05-10T03:22:11.628Z,22.00
2023-05-10T03:27:12.991Z,21.91
2023-05-10T03:32:14.374Z,21.95
2023-05-10T03:37:15.852Z,21.94
2023-05-10T03:42:18.704Z,21.90
2023-05-10T03:47:20.742Z,21.93
2023-05-10T03:52:22.123Z,21.95
2023-05-10T03:57:23.509Z,21.95
2023-05-10T04:02:25.035Z,21.92
2023-05-10T04:07:26.688Z,21.90
2023-05-10T04:12:28.082Z,21.90
2023-05-10T04:17:29.508Z,21.95
2023-05-10T04:22:31.328Z,21.96
2023-05-10T04:27:32.714Z,21.95
2023-05-10T04:32:34.144Z,21.94
2023-05-10T04:37:35.748Z,21.98
2023-05-10T04:42:37.156Z,22.05
2023-05-10T04:47:38.657Z,22.03
2023-05-10T04:52:40.044Z,22.12
2023-05-10T04:57:41.442Z,22.19
2023-05-10T05:02:46.479Z,22.18
2023-05-10T05:07:47.922Z,22.17
2023-05-10T05:12:49.329Z,22.26
2023-05-10T05:17:50.742Z,22.28
2023-05-10T05:22:52.121Z,22.27
2023-05-10T05:27:53.495Z,22.31
2023-05-10T05:32:54.894Z,22.35
2023-05-10T05:37:56.724Z,22.40
2023-05-10T05:42:58.103Z,22.37
2023-05-10T05:47:59.771Z,22.42
2023-05-10T05:53:01.809Z,22.40
2023-05-10T05:58:03.490Z,22.45
2023-05-10T06:03:05.058Z,22.48
2023-05-10T06:08:06.771Z,22.45
2023-05-10T06:13:08.198Z,22.44
2023-05-10T06:18:09.799Z,22.53
2023-05-10T06:23:11.829Z,22.65
2023-05-10T06:28:13.213Z,22.79
2023-05-10T06:33:14.636Z,22.88
2023-05-10T06:38:17.848Z,22.92
2023-05-10T06:43:19.234Z,22.99
2023-05-10T06:48:20.658Z,23.03
2023-05-10T06:53:22.074Z,23.04
2023-05-10T06:58:23.585Z,23.11
2023-05-10T07:03:24.972Z,23.04
2023-05-10T07:08:26.352Z,23.13
2023-05-10T07:13:27.802Z,23.11
2023-05-10T07:18:29.705Z,23.11
2023-05-10T07:23:31.344Z,23.19
2023-05-10T07:28:33.172Z,23.21
2023-05-10T07:33:34.550Z,23.26
2023-05-10T07:38:35.952Z,23.24
2023-05-10T07:43:37.340Z,23.22
2023-05-10T07:48:38.804Z,23.22
2023-05-10T07:53:40.191Z,23.16
2023-05-10T07:58:41.561Z,23.23
2023-05-10T08:03:43.006Z,23.27
2023-05-10T08:08:46.326Z,23.27
2023-05-10T08:13:47.995Z,23.29
2023-05-10T08:18:50.128Z,23.29
2023-05-10T08:23:51.606Z,23.31
2023-05-10T08:28:52.984Z,23.34
2023-05-10T08:33:54.374Z,23.34
2023-05-10T08:38:56.041Z,23.31
2023-05-10T08:43:57.463Z,23.32
2023-05-10T08:48:58.899Z,23.32
2023-05-10T08:54:00.436Z,23.38
2023-05-10T08:59:01.968Z,23.41
2023-05-10T09:04:04.009Z,23.40
2023-05-10T09:09:05.472Z,23.42
2023-05-10T09:14:06.902Z,23.38
2023-05-10T09:19:09.503Z,23.42
2023-05-10T09:24:11.025Z,23.44
2023-05-10T09:29:12.486Z,23.48
2023-05-10T09:34:41.100Z,23.52
2023-05-10T09:39:42.719Z,23.59
2023-05-10T09:44:44.362Z,23.60
2023-05-10T09:49:51.000Z,23.58
2023-05-10T09:54:55.505Z,23.63
2023-05-10T09:59:58.371Z,23.71
2023-05-10T10:05:02.035Z,23.73
2023-05-10T10:10:04.637Z,23.73
2023-05-10T10:15:07.566Z,23.66
2023-05-10T10:20:11.752Z,23.68
2023-05-10T10:25:14.911Z,23.79
2023-05-10T10:30:28.469Z,23.73
2023-05-10T10:35:33.242Z,23.77
2023-05-10T10:40:35.153Z,23.73
2023-05-10T10:45:41.341Z,23.73
2023-05-10T10:50:45.826Z,23.72
2023-05-10T10:55:50.311Z,23.72
2023-05-10T11:00:51.791Z,23.71
2023-05-10T11:05:54.200Z,23.72
2023-05-10T11:11:01.559Z,23.70
2023-05-10T11:16:12.054Z,23.70
2023-05-10T11:21:14.147Z,23.69
2023-05-10T11:26:15.566Z,23.71
2023-05-10T11:31:17.548Z,23.72
2023-05-10T11:36:20.270Z,23.70
2023-05-10T11:41:25.325Z,23.68
2023-05-10T11:46:28.185Z,23.69
2023-05-10T11:51:29.711Z,23.75
2023-05-10T11:56:31.111Z,23.69
2023-05-10T12:01:32.492Z,23.73
2023-05-10T12:06:37.552Z,23.78
2023-05-10T12:11:43.474Z,23.84
2023-05-10T12:16:45.674Z,23.81
2023-05-10T12:21:47.215Z,23.86
2023-05-10T12:26:49.274Z,23.84
2023-05-10T12:31:58.115Z,23.87
2023-05-10T12:36:59.665Z,23.87
2023-05-10T12:42:01.323Z,23.86
2023-05-10T12:47:02.798Z,23.86
2023-05-10T12:52:04.257Z,23.84
2023-05-10T12:57:05.748Z,23.84
2023-05-10T13:02:07.308Z,23.90
2023-05-10T13:07:08.680Z,23.89
2023-05-10T13:12:10.333Z,23.91
2023-05-10T13:17:11.934Z,23.95
2023-05-10T13:22:13.358Z,23.96
2023-05-10T13:27:14.792Z,23.98
2023-05-10T13:32:16.167Z,23.92
2023-05-10T13:37:17.647Z,23.91
2023-05-10T13:42:19.206Z,23.88
2023-05-10T13:47:22.479Z,23.85
2023-05-10T13:52:23.972Z,23.85
2023-05-10T13:57:25.539Z,23.91
2023-05-10T14:02:28.340Z,23.91
2023-05-10T14:07:29.813Z,23.87
2023-05-10T14:12:31.242Z,23.85
2023-05-10T14:17:32.649Z,23.94
2023-05-10T14:22:34.182Z,23.94
2023-05-10T14:27:35.606Z,23.90
2023-05-10T14:32:37.810Z,23.94
2023-05-10T14:37:39.431Z,23.95
2023-05-10T14:42:40.838Z,24.01
2023-05-10T14:47:42.263Z,24.02
2023-05-10T14:52:43.722Z,24.05
2023-05-10T14:57:47.305Z,23.98
2023-05-10T15:02:49.223Z,24.02
2023-05-10T15:07:51.149Z,23.99
2023-05-10T15:12:52.563Z,24.00
2023-05-10T15:17:53.976Z,24.01
2023-05-10T15:22:55.611Z,23.96
2023-05-10T15:27:57.035Z,23.92
2023-05-10T15:32:58.522Z,23.80
2023-05-10T15:38:00.027Z,23.61
2023-05-10T15:43:01.630Z,23.54
2023-05-10T15:48:03.446Z,23.51
2023-05-10T15:53:05.002Z,23.36
2023-05-10T15:58:06.390Z,23.32
2023-05-10T16:03:07.967Z,23.31
2023-05-10T16:08:09.406Z,23.26
2023-05-10T16:13:10.799Z,23.18
2023-05-10T16:18:12.431Z,23.13
2023-05-10T16:23:14.975Z,23.08
2023-05-10T16:28:16.504Z,23.03
2023-05-10T16:33:17.875Z,22.97
2023-05-10T16:38:21.368Z,22.92
2023-05-10T16:43:25.368Z,22.89
2023-05-10T16:48:27.568Z,22.86
2023-05-10T16:53:29.011Z,22.84
2023-05-10T16:58:30.378Z,22.84
2023-05-10T17:03:31.837Z,22.79
2023-05-10T17:08:33.424Z,22.85
2023-05-10T17:13:34.863Z,22.77
2023-05-10T17:18:36.445Z,22.75
2023-05-10T17:23:37.844Z,22.68
2023-05-10T17:28:39.222Z,22.68
2023-05-10T17:33:40.611Z,22.56
2023-05-10T17:38:43.254Z,22.56
2023-05-10T17:43:44.656Z,22.57
2023-05-10T17:48:46.043Z,22.53
2023-05-10T17:53:47.589Z,22.52
2023-05-10T17:58:50.294Z,22.55
2023-05-10T18:03:52.712Z,22.60
2023-05-10T18:08:54.098Z,22.55
2023-05-10T18:13:55.704Z,22.51
2023-05-10T18:18:57.867Z,22.58
2023-05-10T18:23:59.338Z,22.58
2023-05-10T18:29:02.711Z,22.50
2023-05-10T18:34:05.539Z,22.52
2023-05-10T18:39:06.920Z,22.49
2023-05-10T18:44:09.153Z,22.43
2023-05-10T18:49:10.532Z,22.48
2023-05-10T18:54:12.000Z,22.38
2023-05-10T18:59:13.609Z,22.43
2023-05-10T19:04:15.021Z,22.43
2023-05-10T19:09:16.479Z,22.38
2023-05-10T19:14:17.875Z,22.37
2023-05-10T19:19:21.125Z,22.32
2023-05-10T19:24:24.811Z,22.40
2023-05-10T19:29:27.302Z,22.41
2023-05-10T19:34:29.829Z,22.43
2023-05-10T19:39:32.421Z,22.31
2023-05-10T19:44:33.899Z,22.28
2023-05-10T19:49:38.579Z,22.34
2023-05-10T19:54:40.030Z,22.39
2023-05-10T19:59:41.431Z,22.42
2023-05-10T20:04:42.820Z,22.43
2023-05-10T20:09:44.317Z,22.29
2023-05-10T20:14:45.836Z,22.24
2023-05-10T20:19:47.216Z,22.35
2023-05-10T20:24:48.663Z,22.39
2023-05-10T20:29:50.031Z,22.39
2023-05-10T20:34:51.431Z,22.37
2023-05-10T20:39:52.794Z,22.35
2023-05-10T20:44:54.179Z,22.37
2023-05-10T20:49:55.546Z,22.38
2023-05-10T20:54:56.947Z,22.36
2023-05-10T20:59:58.354Z,22.34
2023-05-10T21:04:59.777Z,22.34
2023-05-10T21:10:01.190Z,22.31
2023-05-10T21:15:03.432Z,22.31
2023-05-10T21:20:05.263Z,22.29
2023-05-10T21:25:07.165Z,22.28
2023-05-10T21:30:09.143Z,22.30
2023-05-10T21:35:10.545Z,22.27
2023-05-10T21:40:12.786Z,22.29
2023-05-10T21:45:14.170Z,22.26
2023-05-10T21:50:15.719Z,22.29
2023-05-10T21:55:17.233Z,22.28
2023-05-10T22:00:19.573Z,22.28
2023-05-10T22:05:21.315Z,22.28
2023-05-10T22:10:22.702Z,22.31
2023-05-10T22:15:24.084Z,22.23
2023-05-10T22:20:25.494Z,22.22
2023-05-10T22:25:26.980Z,22.23
2023-05-10T22:30:30.402Z,22.27
2023-05-10T22:35:32.947Z,22.23
2023-05-10T22:40:34.336Z,22.19
2023-05-10T22:45:35.762Z,22.26
2023-05-10T22:50:37.373Z,22.21
2023-05-10T22:55:38.802Z,22.16
2023-05-10T23:00:40.182Z,22.19
2023-05-10T23:05:41.633Z,22.20
2023-05-10T23:10:43.016Z,22.21
2023-05-10T23:15:44.399Z,22.13
2023-05-10T23:20:45.776Z,22.18
2023-05-10T23:25:47.160Z,22.20
2023-05-10T23:30:54.467Z,22.14
2023-05-10T23:35:55.994Z,22.17
2023-05-10T23:40:57.422Z,22.18
2023-05-10T23:45:59.262Z,22.25
2023-05-10T23:51:00.867Z,22.15
2023-05-10T23:56:02.294Z,22.18
